AirNav   Bose Proflight Series 2 Wireless Aviation Headset
 
 896 users online  

84MO Holiday Inn Westport Heliport
St Louis, Missouri, USA

GOING TO ST LOUIS?


FAA INFORMATION EFFECTIVE 07 NOVEMBER 2019

Location

FAA Identifier: 84MO
Lat/Long: 38-41-38.1870N 090-26-55.4270W
38-41.636450N 090-26.923783W
38.6939408,-90.4487297
(estimated)
Elevation: 600 ft. / 183 m (estimated)
Variation: 02E (1985)
From city: 15 miles NW of ST LOUIS, MO
Time zone: UTC -6 (UTC -5 during Daylight Saving Time)
Zip code: 63146

Heliport Operations

Heliport use: Private use. Permission required prior to landing
Activation date: 04/1983
Control tower: no
ARTCC: KANSAS CITY CENTER
FSS: SAINT LOUIS FLIGHT SERVICE STATION
Attendance: DAWN-2300
Wind indicator: no
Segmented circle: yes

Heliport Communications

WX ASOS at STL (5 nm NE): PHONE 314-890-4790
WX ASOS at SUS (10 nm W): 134.8 (314-890-7255)
WX ASOS at SET (14 nm N): 118.075 (636-250-4590)
WX ASOS at CPS (16 nm SE): PHONE 618-332-0001

Nearby radio navigation aids

VOR radial/distance  VOR name  Freq  Var
STLr170/10.1ST LOUIS VORTAC117.4001E
FTZr085/24.5FORISTELL VORTAC110.8005E
TOYr260/25.0TROY VORTAC116.0004E

 
NDB name  Hdg/Dist  Freq  Var  ID
EAVES079/4.722701WFZ ..-. --..
OBLIO170/6.533801WLM .-.. --
ZUMAY236/9.840401WST ... -
CIVIC MEMORIAL238/21.926301WCVM -.-. ...- --

Heliport Services

Runway Information

Helipad H1

Dimensions: 86 x 86 ft. / 26 x 26 m
Surface: asphalt/concrete
Latitude: 38-41.636500N
Longitude: 090-26.923833W
Elevation: 600.0 ft.
Traffic pattern: leftleft

Heliport Ownership and Management from official FAA records

Ownership: Privately-owned
Owner: HOLIDAY INN WESTPORT
1973 CRAIGSHIRE DR.
ST. LOUIS, MO 63146
Phone 573-434-0100
ANITA M. SUMNER, ST. LOUIS HOTEL CORP.
Manager: DAN GOUGH
1973 CRAIGSHIRE DRIVE
ST. LOUIS, MO 63146
Phone 314-434-0100

Additional Remarks

FOR CD CTC ST LOUIS APCH AT 314-890-1018.

Instrument Procedures

There are no published instrument procedures at 84MO.

Some nearby airports with instrument procedures:

1H0 - Creve Coeur Airport (3 nm NW)
KSTL - St Louis Lambert International Airport (5 nm NE)
KSUS - Spirit of St Louis Airport (10 nm W)
KSET - St Charles County Smartt Airport (14 nm N)
KCPS - St Louis Downtown Airport (16 nm SE)
 
Loc | Ops | Rwys | IFR | FBO | Links
Com | Nav | Svcs | Stats | Notes

Kansas City Aviation Department
 
Area around 84MO (Holiday Inn Westport Heliport)
 
Road maps at: MapQuest Bing Google
 
Aerial photo
No photo
 
Sectional chart

 
Airport distance calculator
Flying to Holiday Inn Westport Heliport? Find the distance to fly.

From to 84MO

Sunrise and sunset
Times for 20-Nov-2019
 Local
(UTC-6)
 Zulu
(UTC)
Morning civil twilight06:2212:22
Sunrise06:5112:51
Sunset16:4422:44
Evening civil twilight17:1323:13

Current date and time
Zulu (UTC)  20-Nov-2019 12:17:41
Local (UTC-6)  20-Nov-2019 06:17:41
 
METAR
KSTL 
5nm NE 
201151Z 10008KT 9SM FEW250 03/02 A3013 RMK AO2 SLP208 T00330017 10044 20017 51010
KSUS 
10nm W 
201154Z 08004KT 9SM CLR 03/02 A3011 RMK AO2 SLP201 T00330022 10039 21011 51006
KSET 
14nm N 
201154Z AUTO A3013 RMK AO2 SLPNO 52010 PWINO FZRANO $
KCPS 
16nm SE 
201153Z AUTO 11003KT 6SM BR CLR M01/M02 A3014 RMK AO2 SLP209 I1000 I6003 T10061017 10011 21017 51012
TAF
KSTL 
5nm NE 
201124Z 2012/2118 13007KT P6SM FEW250 FM210700 16010G18KT 6SM -SHRA OVC060 FM211300 18013G20KT P6SM VCSH OVC025 FM211500 20014G21KT P6SM BKN015
KSUS 
10nm W 
201124Z 2012/2112 VRB03KT 6SM BR SKC TEMPO 2012/2015 4SM BR FM201500 13006KT P6SM FEW250 FM210700 17010G18KT 6SM -SHRA OVC060
KCPS 
16nm SE 
201124Z 2012/2112 VRB03KT 5SM BR FEW250 TEMPO 2012/2015 6SM BR FM201500 13006KT P6SM FEW250 FM210800 17010G18KT 6SM -SHRA OVC060
NOTAMs
Click for the latest NOTAMs
NOTAMs are issued by the DoD/FAA and will open in a separate window not controlled by AirNav.

 

 
 

Would you like to see your business listed on this page?

 If your business provides an interesting product or service to pilots, flight crews, aircraft, or users of the Holiday Inn Westport Heliport, you should consider listing it here.  To start the listing process, click on the button below
 
Add a business
 

Other Pages about Holiday Inn Westport Heliport

Update a link
 
Copyright © AirNav, LLC. All rights reserved. Privacy Policy  Contact